createdAt,value
2019-01-29T00:00:24.016Z,75.99
2019-01-29T00:01:23.982Z,76.12
2019-01-29T00:02:23.979Z,76.08
2019-01-29T00:03:24.109Z,75.79
2019-01-29T00:04:23.976Z,76.31
2019-01-29T00:05:23.983Z,75.42
2019-01-29T00:06:24.033Z,75.32
2019-01-29T00:07:23.997Z,76.08
2019-01-29T00:08:23.999Z,75.42
2019-01-29T00:09:24.075Z,75.79
2019-01-29T00:10:23.987Z,75.99
2019-01-29T00:11:24.035Z,75.60
2019-01-29T00:12:24.043Z,76.27
2019-01-29T00:13:24.000Z,75.60
2019-01-29T00:14:24.010Z,76.08
2019-01-29T00:15:24.015Z,75.89
2019-01-29T00:16:24.057Z,75.99
2019-01-29T00:17:24.050Z,75.99
2019-01-29T00:18:24.026Z,75.70
2019-01-29T00:19:24.050Z,75.13
2019-01-29T00:20:24.053Z,75.32
2019-01-29T00:21:24.032Z,76.27
2019-01-29T00:22:24.097Z,76.65
2019-01-29T00:23:24.035Z,76.65
2019-01-29T00:24:24.054Z,76.27
2019-01-29T00:25:24.054Z,76.37
2019-01-29T00:26:24.061Z,76.56
2019-01-29T00:27:24.067Z,75.99
2019-01-29T00:28:24.090Z,76.84
2019-01-29T00:29:24.112Z,76.65
2019-01-29T00:30:24.605Z,76.65
2019-01-29T00:31:24.125Z,76.84
2019-01-29T00:32:24.075Z,76.75
2019-01-29T00:33:24.121Z,76.56
2019-01-29T00:34:24.090Z,76.84
2019-01-29T00:35:24.083Z,76.75
2019-01-29T00:36:24.102Z,76.65
2019-01-29T00:37:24.119Z,77.03
2019-01-29T00:38:24.198Z,76.84
2019-01-29T00:39:24.099Z,76.84
2019-01-29T00:40:24.112Z,76.37
2019-01-29T00:41:24.110Z,76.18
2019-01-29T00:42:24.118Z,76.84
2019-01-29T00:43:24.144Z,76.84
2019-01-29T00:44:24.172Z,76.56
2019-01-29T00:45:24.115Z,76.18
2019-01-29T00:46:24.140Z,76.37
2019-01-29T00:47:24.144Z,75.99
2019-01-29T00:48:24.125Z,75.99
2019-01-29T00:49:24.171Z,76.46
2019-01-29T00:50:24.185Z,77.03
2019-01-29T00:51:24.180Z,76.84
2019-01-29T00:52:24.153Z,76.18
2019-01-29T00:53:24.159Z,76.27
2019-01-29T00:54:24.172Z,76.65
2019-01-29T00:55:24.201Z,76.84
2019-01-29T00:56:24.191Z,76.18
2019-01-29T00:57:24.175Z,76.84
2019-01-29T00:58:24.175Z,76.56
2019-01-29T00:59:24.177Z,76.18
2019-01-29T01:00:24.210Z,76.93
2019-01-29T01:01:24.193Z,76.84
2019-01-29T01:02:24.179Z,76.93
2019-01-29T01:03:24.197Z,76.46
2019-01-29T01:04:24.195Z,76.84
2019-01-29T01:05:24.284Z,76.65
2019-01-29T01:06:24.202Z,76.84
2019-01-29T01:07:24.217Z,76.56
2019-01-29T01:08:24.220Z,76.93
2019-01-29T01:09:24.223Z,76.84
2019-01-29T01:10:24.218Z,77.03
2019-01-29T01:11:24.236Z,76.46
2019-01-29T01:12:24.248Z,76.93
2019-01-29T01:13:24.223Z,77.22
2019-01-29T01:14:24.240Z,76.75
2019-01-29T01:15:24.228Z,76.08
2019-01-29T01:16:24.261Z,76.42
2019-01-29T01:17:24.258Z,76.61
2019-01-29T01:18:24.261Z,76.99
2019-01-29T01:19:24.266Z,76.90
2019-01-29T01:20:24.258Z,76.65
2019-01-29T01:21:24.255Z,76.93
2019-01-29T01:22:24.304Z,76.71
2019-01-29T01:23:24.274Z,76.52
2019-01-29T01:24:24.268Z,77.09
2019-01-29T01:25:24.261Z,76.52
2019-01-29T01:26:24.293Z,76.04
2019-01-29T01:27:24.266Z,76.32
2019-01-29T01:28:24.332Z,76.23
2019-01-29T01:29:24.279Z,76.32
2019-01-29T01:30:24.277Z,76.23
2019-01-29T01:31:24.282Z,76.14
2019-01-29T01:32:24.297Z,76.71
2019-01-29T01:33:24.336Z,76.42
2019-01-29T01:34:24.385Z,76.42
2019-01-29T01:35:24.309Z,76.80
2019-01-29T01:36:24.317Z,76.61
2019-01-29T01:37:24.305Z,76.52
2019-01-29T01:38:24.314Z,77.18
2019-01-29T01:39:24.348Z,76.80
2019-01-29T01:40:24.323Z,77.09
2019-01-29T01:41:24.362Z,76.99
2019-01-29T01:42:24.326Z,77.09
2019-01-29T01:43:24.337Z,77.24
2019-01-29T01:44:24.383Z,77.28
2019-01-29T01:45:24.341Z,77.75
2019-01-29T01:46:24.333Z,77.62
2019-01-29T01:47:24.338Z,77.47
2019-01-29T01:48:24.364Z,77.43
2019-01-29T01:49:24.348Z,77.71
2019-01-29T01:50:24.391Z,77.84
2019-01-29T01:51:24.385Z,77.75
2019-01-29T01:52:24.358Z,77.66
2019-01-29T01:53:24.388Z,77.62
2019-01-29T01:54:24.375Z,77.75
2019-01-29T01:55:24.395Z,77.37
2019-01-29T01:56:24.380Z,77.84
2019-01-29T01:57:24.367Z,77.94
2019-01-29T01:58:24.378Z,77.43
2019-01-29T01:59:24.378Z,77.24
2019-01-29T02:00:24.393Z,76.86
2019-01-29T02:01:24.419Z,77.62
2019-01-29T02:02:24.406Z,77.62
2019-01-29T02:03:24.410Z,77.33
2019-01-29T02:04:24.437Z,77.62
2019-01-29T02:05:24.441Z,77.81
2019-01-29T02:06:24.433Z,77.43
2019-01-29T02:07:24.421Z,77.33
2019-01-29T02:08:24.426Z,77.33
2019-01-29T02:09:24.423Z,77.43
2019-01-29T02:10:24.419Z,77.14
2019-01-29T02:11:24.433Z,77.33
2019-01-29T02:12:25.595Z,76.86
2019-01-29T02:13:24.431Z,77.14
2019-01-29T02:14:24.428Z,77.43
2019-01-29T02:15:24.440Z,76.86
2019-01-29T02:16:24.446Z,77.33
2019-01-29T02:17:24.460Z,77.62
2019-01-29T02:18:24.440Z,77.81
2019-01-29T02:19:24.476Z,77.43
2019-01-29T02:20:24.445Z,76.95
2019-01-29T02:21:24.458Z,77.14
2019-01-29T02:22:24.499Z,77.14
2019-01-29T02:23:24.467Z,77.05
2019-01-29T02:24:24.452Z,77.24
2019-01-29T02:25:24.479Z,77.62
2019-01-29T02:26:24.465Z,77.52
2019-01-29T02:27:24.487Z,77.24
2019-01-29T02:28:24.478Z,77.43
2019-01-29T02:29:24.487Z,77.62
2019-01-29T02:30:24.488Z,77.62
2019-01-29T02:31:24.476Z,77.71
2019-01-29T02:32:24.487Z,77.29
2019-01-29T02:33:25.145Z,78.15
2019-01-29T02:34:24.549Z,77.96
2019-01-29T02:35:24.513Z,77.01
2019-01-29T02:36:24.501Z,77.43
2019-01-29T02:37:24.503Z,77.58
2019-01-29T02:38:24.504Z,77.29
2019-01-29T02:39:24.511Z,77.58
2019-01-29T02:40:24.540Z,77.58
2019-01-29T02:41:24.511Z,77.77
2019-01-29T02:42:24.513Z,77.48
2019-01-29T02:43:24.576Z,77.67
2019-01-29T02:44:24.526Z,78.05
2019-01-29T02:45:24.545Z,77.96
2019-01-29T02:46:24.531Z,77.29
2019-01-29T02:47:24.586Z,77.39
2019-01-29T02:48:24.527Z,77.96
2019-01-29T02:49:24.558Z,78.34
2019-01-29T02:50:24.545Z,78.24
2019-01-29T02:51:24.552Z,78.15
2019-01-29T02:52:24.599Z,78.05
2019-01-29T02:53:24.583Z,77.58
2019-01-29T02:54:24.602Z,76.92
2019-01-29T02:55:24.577Z,77.39
2019-01-29T02:56:24.577Z,76.82
2019-01-29T02:57:24.560Z,77.39
2019-01-29T02:58:24.558Z,76.92
2019-01-29T02:59:24.580Z,77.48
2019-01-29T03:00:24.572Z,77.39
2019-01-29T03:01:24.625Z,77.58
2019-01-29T03:02:24.569Z,77.29
2019-01-29T03:03:24.573Z,77.39
2019-01-29T03:04:24.574Z,77.39
2019-01-29T03:05:24.579Z,78.05
2019-01-29T03:06:24.575Z,78.15
2019-01-29T03:07:24.611Z,78.53
2019-01-29T03:08:24.622Z,78.34
2019-01-29T03:09:24.594Z,77.39
2019-01-29T03:10:24.616Z,77.77
2019-01-29T03:11:24.611Z,78.53
2019-01-29T03:12:24.646Z,78.43
2019-01-29T03:13:24.605Z,78.53
2019-01-29T03:14:24.629Z,78.72
2019-01-29T03:15:24.617Z,78.62
2019-01-29T03:16:24.607Z,78.62
2019-01-29T03:17:24.629Z,78.53
2019-01-29T03:18:24.635Z,78.62
2019-01-29T03:19:24.624Z,78.91
2019-01-29T03:20:24.627Z,79.00
2019-01-29T03:21:24.657Z,79.10
2019-01-29T03:22:24.661Z,78.53
2019-01-29T03:23:27.676Z,78.72
2019-01-29T03:24:24.656Z,78.72
2019-01-29T03:25:24.629Z,78.34
2019-01-29T03:26:24.723Z,78.53
2019-01-29T03:27:24.678Z,78.62
2019-01-29T03:28:24.699Z,78.24
2019-01-29T03:29:24.677Z,78.34
2019-01-29T03:30:24.659Z,78.72
2019-01-29T03:31:24.667Z,78.53
2019-01-29T03:32:24.674Z,78.53
2019-01-29T03:33:24.662Z,78.53
2019-01-29T03:34:24.703Z,78.53
2019-01-29T03:35:24.674Z,78.62
2019-01-29T03:36:24.667Z,78.53
2019-01-29T03:37:24.724Z,78.81
2019-01-29T03:38:24.681Z,78.62
2019-01-29T03:39:24.690Z,78.81
2019-01-29T03:40:24.686Z,78.62
2019-01-29T03:41:24.700Z,79.00
2019-01-29T03:42:24.682Z,79.57
2019-01-29T03:43:24.727Z,79.47
2019-01-29T03:44:24.695Z,79.47
2019-01-29T03:45:24.691Z,79.85
2019-01-29T03:46:24.694Z,79.76
2019-01-29T03:47:24.756Z,79.66
2019-01-29T03:48:24.710Z,79.38
2019-01-29T03:49:24.714Z,79.38
2019-01-29T03:50:24.734Z,80.04
2019-01-29T03:51:24.715Z,79.57
2019-01-29T03:52:24.723Z,80.10
2019-01-29T03:53:24.746Z,79.63
2019-01-29T03:54:24.730Z,80.00
2019-01-29T03:55:24.714Z,80.10
2019-01-29T03:56:24.722Z,79.53
2019-01-29T03:57:24.722Z,80.76
2019-01-29T03:58:24.773Z,79.91
2019-01-29T03:59:24.735Z,79.63
2019-01-29T04:00:24.727Z,79.72
2019-01-29T04:01:24.735Z,79.91
2019-01-29T04:02:24.743Z,79.72
2019-01-29T04:03:24.731Z,79.82
2019-01-29T04:04:24.779Z,80.57
2019-01-29T04:05:24.775Z,80.76
2019-01-29T04:06:24.753Z,81.24
2019-01-29T04:07:24.753Z,81.14
2019-01-29T04:08:24.767Z,81.43
2019-01-29T04:09:24.783Z,81.52
2019-01-29T04:10:24.752Z,80.38
2019-01-29T04:11:24.762Z,80.38
2019-01-29T04:12:24.797Z,80.57
2019-01-29T04:13:24.758Z,80.57
2019-01-29T04:14:24.761Z,80.57
2019-01-29T04:15:24.768Z,80.10
2019-01-29T04:16:24.765Z,80.48
2019-01-29T04:17:24.777Z,80.38
2019-01-29T04:18:24.822Z,80.29
2019-01-29T04:19:24.781Z,80.29
2019-01-29T04:20:24.794Z,80.48
2019-01-29T04:21:24.786Z,80.76
2019-01-29T04:22:24.780Z,78.96
2019-01-29T04:23:24.844Z,79.25
2019-01-29T04:24:24.783Z,80.00
2019-01-29T04:25:24.811Z,79.91
2019-01-29T04:26:24.794Z,79.91
2019-01-29T04:27:24.797Z,79.91
2019-01-29T04:28:24.794Z,79.53
2019-01-29T04:29:24.811Z,79.91
2019-01-29T04:30:24.806Z,80.10
2019-01-29T04:31:24.817Z,78.58
2019-01-29T04:32:24.828Z,78.49
2019-01-29T04:33:24.864Z,79.15
2019-01-29T04:34:24.815Z,78.96
2019-01-29T04:35:24.823Z,78.49
2019-01-29T04:36:24.826Z,78.67
2019-01-29T04:37:24.822Z,78.87
2019-01-29T04:38:24.856Z,78.67
2019-01-29T04:39:24.869Z,78.67
2019-01-29T04:40:24.820Z,78.30
2019-01-29T04:41:24.824Z,78.30
2019-01-29T04:42:24.834Z,77.92
2019-01-29T04:43:24.827Z,78.30
2019-01-29T04:44:24.852Z,78.11
2019-01-29T04:45:24.868Z,77.16
2019-01-29T04:46:24.873Z,77.54
2019-01-29T04:47:24.855Z,77.54
2019-01-29T04:48:24.854Z,77.35
2019-01-29T04:49:24.846Z,76.97
2019-01-29T04:50:24.876Z,77.35
2019-01-29T04:51:24.873Z,77.83
2019-01-29T04:52:24.857Z,77.25
2019-01-29T04:53:24.891Z,77.06
2019-01-29T04:54:24.880Z,76.59
2019-01-29T04:55:24.883Z,76.97
2019-01-29T04:56:24.889Z,76.50
2019-01-29T04:57:24.884Z,76.78
2019-01-29T04:58:24.877Z,76.78
2019-01-29T04:59:24.879Z,76.97
2019-01-29T05:00:24.883Z,76.68
2019-01-29T05:01:24.927Z,77.06
2019-01-29T05:02:24.887Z,76.40
2019-01-29T05:03:24.892Z,76.87
2019-01-29T05:04:24.898Z,76.50
2019-01-29T05:05:24.891Z,76.21
2019-01-29T05:06:24.902Z,75.84
2019-01-29T05:07:24.965Z,76.31
2019-01-29T05:08:24.907Z,76.12
2019-01-29T05:09:24.908Z,76.21
2019-01-29T05:10:24.919Z,75.93
2019-01-29T05:11:24.912Z,75.84
2019-01-29T05:12:24.902Z,75.45
2019-01-29T05:13:24.925Z,75.40
2019-01-29T05:14:24.919Z,75.17
2019-01-29T05:15:24.968Z,75.26
2019-01-29T05:16:24.917Z,74.69
2019-01-29T05:17:24.926Z,74.79
2019-01-29T05:18:24.959Z,74.73
2019-01-29T05:19:24.958Z,74.60
2019-01-29T05:20:24.935Z,74.79
2019-01-29T05:21:24.955Z,74.60
2019-01-29T05:22:24.925Z,74.54
2019-01-29T05:23:24.957Z,74.22
2019-01-29T05:24:25.065Z,74.13
2019-01-29T05:25:25.074Z,74.26
2019-01-29T05:26:24.963Z,74.32
2019-01-29T05:27:24.964Z,74.32
2019-01-29T05:28:24.953Z,73.56
2019-01-29T05:29:24.942Z,73.84
2019-01-29T05:30:24.987Z,72.80
2019-01-29T05:31:24.958Z,73.08
2019-01-29T05:32:24.962Z,72.99
2019-01-29T05:33:24.968Z,73.56
2019-01-29T05:34:24.972Z,73.75
2019-01-29T05:35:25.013Z,73.56
2019-01-29T05:36:25.011Z,73.46
2019-01-29T05:37:24.969Z,73.94
2019-01-29T05:38:24.977Z,72.99
2019-01-29T05:39:25.000Z,73.08
2019-01-29T05:40:24.995Z,73.37
2019-01-29T05:41:24.971Z,73.46
2019-01-29T05:42:25.029Z,73.46
2019-01-29T05:43:24.993Z,73.56
2019-01-29T05:44:25.001Z,72.89
2019-01-29T05:45:25.021Z,72.99
2019-01-29T05:46:25.268Z,73.18
2019-01-29T05:47:25.032Z,73.18
2019-01-29T05:48:24.988Z,73.46
2019-01-29T05:49:25.006Z,72.52
2019-01-29T05:50:25.091Z,72.61
2019-01-29T05:51:25.013Z,73.37
2019-01-29T05:52:25.037Z,72.52
2019-01-29T05:53:25.023Z,72.99
2019-01-29T05:54:25.018Z,73.37
2019-01-29T05:55:25.026Z,72.89
2019-01-29T05:56:25.054Z,72.80
2019-01-29T05:57:25.015Z,72.61
2019-01-29T05:58:25.040Z,72.89
2019-01-29T05:59:25.022Z,72.89
2019-01-29T06:00:25.039Z,72.99
2019-01-29T06:01:25.052Z,73.18
2019-01-29T06:02:25.046Z,72.33
2019-01-29T06:03:25.112Z,72.42
2019-01-29T06:04:25.042Z,72.71
2019-01-29T06:05:25.062Z,72.52
2019-01-29T06:06:25.054Z,73.27
2019-01-29T06:07:25.038Z,72.89
2019-01-29T06:08:25.053Z,72.71
2019-01-29T06:09:25.111Z,72.52
2019-01-29T06:10:25.063Z,73.18
2019-01-29T06:11:25.121Z,72.61
2019-01-29T06:12:25.053Z,72.33
2019-01-29T06:13:25.049Z,72.42
2019-01-29T06:14:25.066Z,72.38
2019-01-29T06:15:25.078Z,72.67
2019-01-29T06:16:25.071Z,72.19
2019-01-29T06:17:27.458Z,72.00
2019-01-29T06:18:25.079Z,72.00
2019-01-29T06:19:25.120Z,72.19
2019-01-29T06:20:25.087Z,71.91
2019-01-29T06:21:25.080Z,71.91
2019-01-29T06:22:25.169Z,72.00
2019-01-29T06:23:25.361Z,72.10
2019-01-29T06:24:26.046Z,72.57
2019-01-29T06:25:25.595Z,72.38
2019-01-29T06:26:25.500Z,72.38
2019-01-29T06:27:25.109Z,73.14
2019-01-29T06:28:25.098Z,72.19
2019-01-29T06:29:25.115Z,72.48
2019-01-29T06:30:25.406Z,72.57
2019-01-29T06:31:25.225Z,72.38
2019-01-29T06:32:25.255Z,72.67
2019-01-29T06:33:25.114Z,72.77
2019-01-29T06:34:25.173Z,72.38
2019-01-29T06:35:25.149Z,72.77
2019-01-29T06:36:25.132Z,73.33
2019-01-29T06:37:25.108Z,72.77
2019-01-29T06:38:25.149Z,72.63
2019-01-29T06:39:25.119Z,73.30
2019-01-29T06:40:25.125Z,73.39
2019-01-29T06:41:25.123Z,72.63
2019-01-29T06:42:25.347Z,72.63
2019-01-29T06:43:25.131Z,73.39
2019-01-29T06:44:25.189Z,73.20
2019-01-29T06:45:25.130Z,73.20
2019-01-29T06:46:25.140Z,73.11
2019-01-29T06:47:25.144Z,73.11
2019-01-29T06:48:25.138Z,73.39
2019-01-29T06:49:25.161Z,73.39
2019-01-29T06:50:25.157Z,73.96
2019-01-29T06:51:25.126Z,73.68
2019-01-29T06:52:25.182Z,72.82
2019-01-29T06:53:25.156Z,72.92
2019-01-29T06:54:25.157Z,73.39
2019-01-29T06:55:25.151Z,72.73
2019-01-29T06:56:25.173Z,72.92
2019-01-29T06:57:25.223Z,72.44
2019-01-29T06:58:25.199Z,73.58
2019-01-29T06:59:25.191Z,72.92
2019-01-29T07:00:25.216Z,73.20
2019-01-29T07:01:25.151Z,73.77
2019-01-29T07:02:25.182Z,73.77
2019-01-29T07:03:25.174Z,73.58
2019-01-29T07:04:25.199Z,73.68
2019-01-29T07:05:25.191Z,74.33
2019-01-29T07:06:25.160Z,74.52
2019-01-29T07:07:25.308Z,75.09
2019-01-29T07:08:25.164Z,75.28
2019-01-29T07:09:25.165Z,74.90
2019-01-29T07:10:25.225Z,74.33
2019-01-29T07:11:25.164Z,74.33
2019-01-29T07:12:25.174Z,74.24
2019-01-29T07:13:25.174Z,73.96
2019-01-29T07:14:25.192Z,74.52
2019-01-29T07:15:25.217Z,74.47
2019-01-29T07:16:25.225Z,73.71
2019-01-29T07:17:25.237Z,73.71
2019-01-29T07:18:25.188Z,73.80
2019-01-29T07:19:25.215Z,73.80
2019-01-29T07:20:25.182Z,73.90
2019-01-29T07:21:25.198Z,73.71
2019-01-29T07:22:25.215Z,73.80
2019-01-29T07:23:25.193Z,73.71
2019-01-29T07:24:25.193Z,73.43
2019-01-29T07:25:25.254Z,73.61
2019-01-29T07:26:25.231Z,74.09
2019-01-29T07:27:25.202Z,73.80
2019-01-29T07:28:25.206Z,73.90
2019-01-29T07:29:25.231Z,73.99
2019-01-29T07:30:25.238Z,73.71
2019-01-29T07:31:25.233Z,73.33
2019-01-29T07:32:25.228Z,73.43
2019-01-29T07:33:25.228Z,73.90
2019-01-29T07:34:25.262Z,73.80
2019-01-29T07:35:25.224Z,73.71
2019-01-29T07:36:25.261Z,74.28
2019-01-29T07:37:25.250Z,74.41
2019-01-29T07:38:25.240Z,74.22
2019-01-29T07:39:25.247Z,73.65
2019-01-29T07:40:25.218Z,73.56
2019-01-29T07:41:25.236Z,73.94
2019-01-29T07:42:25.255Z,73.94
2019-01-29T07:43:25.233Z,73.94
2019-01-29T07:44:25.272Z,74.22
2019-01-29T07:45:25.237Z,73.75
2019-01-29T07:46:25.253Z,73.84
2019-01-29T07:47:25.254Z,73.37
2019-01-29T07:48:25.256Z,73.37
2019-01-29T07:49:25.265Z,73.94
2019-01-29T07:50:25.258Z,73.75
2019-01-29T07:51:25.268Z,73.94
2019-01-29T07:52:25.288Z,73.75
2019-01-29T07:53:25.307Z,74.03
2019-01-29T07:54:33.048Z,73.27
2019-01-29T07:55:25.265Z,73.75
2019-01-29T07:56:25.265Z,73.56
2019-01-29T07:57:25.289Z,74.41
2019-01-29T07:58:25.286Z,73.56
2019-01-29T07:59:32.963Z,73.69
2019-01-29T08:00:25.293Z,73.69
2019-01-29T08:01:25.277Z,73.50
2019-01-29T08:02:25.280Z,73.22
2019-01-29T08:03:25.347Z,73.31
2019-01-29T08:04:25.292Z,73.31
2019-01-29T08:05:25.308Z,73.50
2019-01-29T08:06:25.294Z,73.60
2019-01-29T08:07:25.298Z,73.31
2019-01-29T08:08:25.353Z,73.31
2019-01-29T08:09:25.312Z,72.93
2019-01-29T08:10:25.308Z,72.93
2019-01-29T08:11:25.315Z,72.93
2019-01-29T08:12:25.315Z,73.12
2019-01-29T08:13:25.326Z,73.12
2019-01-29T08:14:25.339Z,73.03
2019-01-29T08:15:25.326Z,72.93
2019-01-29T08:16:25.323Z,73.12
2019-01-29T08:17:25.349Z,72.78
2019-01-29T08:18:25.327Z,72.68
2019-01-29T08:19:25.374Z,72.59
2019-01-29T08:20:25.344Z,72.59
2019-01-29T08:21:25.334Z,72.49
2019-01-29T08:22:25.362Z,71.98
2019-01-29T08:23:25.328Z,72.17
2019-01-29T08:24:25.348Z,72.02
2019-01-29T08:25:25.339Z,72.21
2019-01-29T08:26:25.371Z,72.11
2019-01-29T08:27:25.403Z,72.02
2019-01-29T08:28:25.346Z,72.59
2019-01-29T08:29:25.352Z,73.07
2019-01-29T08:30:25.360Z,72.59
2019-01-29T08:31:25.349Z,72.30
2019-01-29T08:32:25.385Z,73.35
2019-01-29T08:33:25.403Z,72.59
2019-01-29T08:34:25.417Z,72.40
2019-01-29T08:35:25.407Z,72.21
2019-01-29T08:36:25.371Z,72.59
2019-01-29T08:37:25.385Z,73.25
2019-01-29T08:38:25.442Z,72.30
2019-01-29T08:39:25.407Z,72.11
2019-01-29T08:40:25.381Z,72.30
2019-01-29T08:41:25.393Z,72.59
2019-01-29T08:42:25.404Z,72.11
2019-01-29T08:43:25.407Z,72.02
2019-01-29T08:44:25.450Z,72.30
2019-01-29T08:45:25.442Z,72.49
2019-01-29T08:46:25.416Z,72.30
2019-01-29T08:47:25.429Z,71.83
2019-01-29T08:48:25.429Z,71.45
2019-01-29T08:49:25.436Z,72.11
2019-01-29T08:50:25.466Z,71.73
2019-01-29T08:51:25.438Z,71.83
2019-01-29T08:52:25.445Z,71.36
2019-01-29T08:53:25.492Z,72.40
2019-01-29T08:54:25.418Z,72.30
2019-01-29T08:55:25.437Z,72.02
2019-01-29T08:56:25.481Z,71.73
2019-01-29T08:57:25.493Z,71.73
2019-01-29T08:58:27.120Z,71.26
2019-01-29T08:59:25.462Z,71.45
2019-01-29T09:00:25.477Z,71.36
2019-01-29T09:01:25.494Z,71.26
2019-01-29T09:02:25.460Z,70.98
2019-01-29T09:03:25.484Z,71.26
2019-01-29T09:04:25.460Z,70.59
2019-01-29T09:05:25.462Z,70.78
2019-01-29T09:06:25.593Z,70.98
2019-01-29T09:07:25.496Z,71.01
2019-01-29T09:08:25.520Z,70.82
2019-01-29T09:09:25.494Z,70.92
2019-01-29T09:10:25.485Z,70.92
2019-01-29T09:11:25.500Z,70.35
2019-01-29T09:12:25.483Z,70.06
2019-01-29T09:13:25.505Z,70.35
2019-01-29T09:14:25.539Z,69.78
2019-01-29T09:15:25.537Z,71.01
2019-01-29T09:16:25.503Z,71.30
2019-01-29T09:17:25.512Z,71.39
2019-01-29T09:18:25.519Z,71.01
2019-01-29T09:19:25.537Z,71.01
2019-01-29T09:20:25.536Z,70.73
2019-01-29T09:21:25.587Z,71.20
2019-01-29T09:22:25.577Z,70.54
2019-01-29T09:23:25.528Z,70.73
2019-01-29T09:24:25.589Z,70.54
2019-01-29T09:25:25.576Z,70.35
2019-01-29T09:26:25.588Z,70.54
2019-01-29T09:27:25.546Z,70.35
2019-01-29T09:28:25.535Z,70.63
2019-01-29T09:29:25.569Z,70.35
2019-01-29T09:30:25.568Z,71.20
2019-01-29T09:31:25.614Z,70.73
2019-01-29T09:32:25.557Z,71.11
2019-01-29T09:33:25.591Z,71.20
2019-01-29T09:34:25.631Z,70.44
2019-01-29T09:35:25.570Z,70.35
2019-01-29T09:36:25.572Z,70.35
2019-01-29T09:37:25.589Z,70.63
2019-01-29T09:38:25.574Z,70.15
2019-01-29T09:39:25.613Z,70.57
2019-01-29T09:40:25.610Z,70.35
2019-01-29T09:41:25.797Z,69.96
2019-01-29T09:42:25.584Z,69.11
2019-01-29T09:43:25.597Z,69.02
2019-01-29T09:44:25.621Z,69.91
2019-01-29T09:45:25.646Z,70.00
2019-01-29T09:46:25.654Z,69.62
2019-01-29T09:47:25.639Z,69.05
2019-01-29T09:48:25.623Z,69.34
2019-01-29T09:49:25.664Z,69.15
2019-01-29T09:50:26.500Z,69.81
2019-01-29T09:51:25.716Z,69.43
2019-01-29T09:52:25.659Z,69.53
2019-01-29T09:53:25.675Z,69.81
2019-01-29T09:54:25.645Z,69.53
2019-01-29T09:55:29.590Z,69.91
2019-01-29T09:56:25.672Z,69.91
2019-01-29T09:57:25.656Z,69.71
2019-01-29T09:58:25.668Z,69.24
2019-01-29T09:59:25.657Z,69.81
2019-01-29T10:00:25.665Z,69.24
2019-01-29T10:01:25.706Z,68.86
2019-01-29T10:02:25.672Z,68.86
2019-01-29T10:03:25.706Z,69.62
2019-01-29T10:04:25.721Z,69.34
2019-01-29T10:05:25.678Z,69.43
2019-01-29T10:06:25.707Z,69.43
2019-01-29T10:07:25.706Z,68.86
2019-01-29T10:08:25.721Z,68.86
2019-01-29T10:09:25.702Z,68.96
2019-01-29T10:10:25.690Z,68.86
2019-01-29T10:11:25.694Z,69.15
2019-01-29T10:12:25.747Z,69.05
2019-01-29T10:13:25.962Z,69.05
2019-01-29T10:14:25.736Z,68.96
2019-01-29T10:15:25.781Z,69.15
2019-01-29T10:16:25.720Z,68.86
2019-01-29T10:17:25.709Z,68.77
2019-01-29T10:18:25.726Z,68.58
2019-01-29T10:19:25.763Z,68.67
2019-01-29T10:20:25.732Z,68.67
2019-01-29T10:21:25.738Z,68.86
2019-01-29T10:22:25.893Z,68.48
2019-01-29T10:23:25.750Z,68.29
2019-01-29T10:24:25.765Z,68.01
2019-01-29T10:25:25.847Z,68.01
2019-01-29T10:26:25.775Z,69.05
2019-01-29T10:27:25.771Z,68.19
2019-01-29T10:28:25.757Z,68.77
2019-01-29T10:29:25.791Z,69.15
2019-01-29T10:30:25.776Z,68.58
2019-01-29T10:31:25.798Z,68.19
2019-01-29T10:32:25.855Z,68.58
2019-01-29T10:33:25.783Z,68.67
2019-01-29T10:34:25.803Z,68.29
2019-01-29T10:35:25.993Z,68.29
2019-01-29T10:36:26.005Z,68.01
2019-01-29T10:37:25.921Z,68.29
2019-01-29T10:38:25.807Z,68.19
2019-01-29T10:39:25.958Z,68.86
2019-01-29T10:40:25.893Z,68.96
2019-01-29T10:41:25.838Z,68.19
2019-01-29T10:42:25.865Z,68.19
2019-01-29T10:43:25.823Z,68.39
2019-01-29T10:44:25.832Z,68.19
2019-01-29T10:45:25.854Z,68.01
2019-01-29T10:46:25.846Z,68.19
2019-01-29T10:47:25.845Z,68.19
2019-01-29T10:48:25.859Z,67.91
2019-01-29T10:49:25.850Z,67.34
2019-01-29T10:50:25.865Z,67.72
2019-01-29T10:51:25.867Z,67.34
2019-01-29T10:52:26.051Z,67.53
2019-01-29T10:53:25.879Z,68.01
2019-01-29T10:54:25.967Z,68.39
2019-01-29T10:55:26.122Z,68.19
2019-01-29T10:56:25.921Z,68.39
2019-01-29T10:57:25.986Z,68.29
2019-01-29T10:58:25.916Z,68.01
2019-01-29T10:59:25.909Z,68.10
2019-01-29T11:00:25.892Z,67.34
2019-01-29T11:01:25.909Z,68.01
2019-01-29T11:02:26.032Z,68.29
2019-01-29T11:03:26.019Z,68.19
2019-01-29T11:04:25.905Z,67.53
2019-01-29T11:05:25.925Z,68.29
2019-01-29T11:06:25.931Z,67.82
2019-01-29T11:07:26.061Z,68.10
2019-01-29T11:08:25.931Z,68.10
2019-01-29T11:09:25.928Z,68.01
2019-01-29T11:10:25.929Z,68.19
2019-01-29T11:11:25.922Z,68.19
2019-01-29T11:12:25.947Z,67.53
2019-01-29T11:13:25.921Z,68.39
2019-01-29T11:14:26.004Z,68.19
2019-01-29T11:15:26.137Z,68.10
2019-01-29T11:16:25.941Z,68.01
2019-01-29T11:17:25.982Z,67.91
2019-01-29T11:18:25.948Z,67.91
2019-01-29T11:19:25.941Z,68.10
2019-01-29T11:20:25.961Z,67.53
2019-01-29T11:21:25.953Z,68.48
2019-01-29T11:22:25.971Z,68.29
2019-01-29T11:23:25.977Z,68.10
2019-01-29T11:24:26.012Z,68.39
2019-01-29T11:25:25.981Z,68.19
2019-01-29T11:26:25.993Z,68.96
2019-01-29T11:27:26.016Z,68.29
2019-01-29T11:28:26.018Z,68.29
2019-01-29T11:29:25.995Z,68.19
2019-01-29T11:30:26.012Z,68.39
2019-01-29T11:31:25.994Z,68.29
2019-01-29T11:32:25.995Z,68.19
2019-01-29T11:33:26.041Z,68.39
2019-01-29T11:34:26.005Z,68.29
2019-01-29T11:35:26.028Z,68.10
2019-01-29T11:36:26.019Z,68.01
2019-01-29T11:37:26.032Z,68.48
2019-01-29T11:38:26.098Z,68.01
2019-01-29T11:39:26.030Z,68.86
2019-01-29T11:40:26.378Z,69.15
2019-01-29T11:41:26.037Z,69.15
2019-01-29T11:42:26.088Z,69.05
2019-01-29T11:43:26.058Z,68.58
2019-01-29T11:44:26.064Z,68.86
2019-01-29T11:45:26.058Z,68.77
2019-01-29T11:46:26.062Z,68.99
2019-01-29T11:47:26.072Z,68.52
2019-01-29T11:48:26.112Z,68.96
2019-01-29T11:49:26.085Z,68.58
2019-01-29T11:50:26.091Z,68.90
2019-01-29T11:51:26.101Z,68.99
2019-01-29T11:52:26.103Z,68.99
2019-01-29T11:53:26.086Z,69.09
2019-01-29T11:54:26.098Z,69.09
2019-01-29T11:55:26.125Z,69.18
2019-01-29T11:56:26.168Z,68.61
2019-01-29T11:57:26.108Z,68.61
2019-01-29T11:58:26.161Z,68.90
2019-01-29T11:59:26.155Z,68.42
2019-01-29T12:00:26.105Z,68.99
2019-01-29T12:01:26.197Z,68.99
2019-01-29T12:02:28.399Z,68.90
2019-01-29T12:03:26.140Z,68.90
2019-01-29T12:04:26.293Z,68.42
2019-01-29T12:05:26.143Z,68.80
2019-01-29T12:06:26.157Z,68.52
2019-01-29T12:07:26.144Z,67.85
2019-01-29T12:08:26.175Z,68.42
2019-01-29T12:09:26.176Z,68.23
2019-01-29T12:10:26.201Z,68.23
2019-01-29T12:11:26.166Z,68.23
2019-01-29T12:12:26.169Z,67.85
2019-01-29T12:13:26.234Z,68.42
2019-01-29T12:14:26.158Z,67.47
2019-01-29T12:15:26.188Z,67.94
2019-01-29T12:16:26.219Z,68.42
2019-01-29T12:17:26.185Z,67.76
2019-01-29T12:18:26.198Z,67.94
2019-01-29T12:19:26.207Z,68.23
2019-01-29T12:20:26.244Z,67.66
2019-01-29T12:21:26.426Z,67.28
2019-01-29T12:22:26.236Z,67.28
2019-01-29T12:23:26.223Z,66.71
2019-01-29T12:24:26.229Z,67.00
2019-01-29T12:25:26.213Z,67.09
2019-01-29T12:26:26.204Z,67.00
2019-01-29T12:27:26.259Z,66.71
2019-01-29T12:28:26.273Z,66.71
2019-01-29T12:29:26.299Z,66.05
2019-01-29T12:30:26.280Z,65.95
2019-01-29T12:31:26.243Z,65.95
2019-01-29T12:32:26.363Z,65.86
2019-01-29T12:33:26.264Z,66.05
2019-01-29T12:34:26.281Z,66.05
2019-01-29T12:35:26.514Z,66.14
2019-01-29T12:36:26.273Z,66.14
2019-01-29T12:37:26.279Z,66.05
2019-01-29T12:38:26.276Z,65.28
2019-01-29T12:39:26.292Z,64.62
2019-01-29T12:40:26.271Z,64.43
2019-01-29T12:41:26.402Z,64.81
2019-01-29T12:42:26.281Z,64.53
2019-01-29T12:43:26.318Z,64.53
2019-01-29T12:44:26.319Z,65.38
2019-01-29T12:45:26.290Z,65.09
2019-01-29T12:46:26.351Z,65.19
2019-01-29T12:47:26.299Z,65.03
2019-01-29T12:48:26.320Z,64.84
2019-01-29T12:49:26.335Z,64.56
2019-01-29T12:50:26.345Z,63.79
2019-01-29T12:51:26.339Z,63.51
2019-01-29T12:52:26.447Z,63.51